sensor_id;sensor_type;location;lat;lon;timestamp;temperature;humidity
49184;DHT22;35021;49.214;12.270;2023-06-14T00:02:01;22.40;41.30
49184;DHT22;35021;49.214;12.270;2023-06-14T00:04:29;22.40;41.40
49184;DHT22;35021;49.214;12.270;2023-06-14T00:06:56;22.40;41.40
49184;DHT22;35021;49.214;12.270;2023-06-14T00:09:23;22.40;41.40
49184;DHT22;35021;49.214;12.270;2023-06-14T00:11:50;22.40;41.40
49184;DHT22;35021;49.214;12.270;2023-06-14T00:14:17;22.40;41.40
49184;DHT22;35021;49.214;12.270;2023-06-14T00:16:44;22.40;41.50
49184;DHT22;35021;49.214;12.270;2023-06-14T00:19:11;22.40;41.50
49184;DHT22;35021;49.214;12.270;2023-06-14T00:21:38;22.40;41.50
49184;DHT22;35021;49.214;12.270;2023-06-14T00:24:06;22.40;41.60
49184;DHT22;35021;49.214;12.270;2023-06-14T00:26:34;22.40;41.60
49184;DHT22;35021;49.214;12.270;2023-06-14T00:29:01;22.40;41.70
49184;DHT22;35021;49.214;12.270;2023-06-14T00:31:28;22.40;41.70
49184;DHT22;35021;49.214;12.270;2023-06-14T00:33:55;22.40;41.80
49184;DHT22;35021;49.214;12.270;2023-06-14T00:36:22;22.30;41.80
49184;DHT22;35021;49.214;12.270;2023-06-14T00:38:48;22.30;41.80
49184;DHT22;35021;49.214;12.270;2023-06-14T00:41:16;22.30;41.90
49184;DHT22;35021;49.214;12.270;2023-06-14T00:43:43;22.30;42.00
49184;DHT22;35021;49.214;12.270;2023-06-14T00:46:09;22.20;42.00
49184;DHT22;35021;49.214;12.270;2023-06-14T00:48:38;22.20;42.10
49184;DHT22;35021;49.214;12.270;2023-06-14T00:51:06;22.20;42.10
49184;DHT22;35021;49.214;12.270;2023-06-14T00:53:33;22.20;42.20
49184;DHT22;35021;49.214;12.270;2023-06-14T00:56:02;22.20;42.20
49184;DHT22;35021;49.214;12.270;2023-06-14T00:58:30;22.20;42.30
49184;DHT22;35021;49.214;12.270;2023-06-14T01:00:57;22.20;42.30
49184;DHT22;35021;49.214;12.270;2023-06-14T01:03:25;22.20;42.30
49184;DHT22;35021;49.214;12.270;2023-06-14T01:05:59;22.20;42.40
49184;DHT22;35021;49.214;12.270;2023-06-14T01:11:36;22.20;42.40
49184;DHT22;35021;49.214;12.270;2023-06-14T01:14:05;22.20;42.40
49184;DHT22;35021;49.214;12.270;2023-06-14T01:16:32;22.20;42.50
49184;DHT22;35021;49.214;12.270;2023-06-14T01:19:01;22.20;42.50
49184;DHT22;35021;49.214;12.270;2023-06-14T01:21:28;22.20;42.50
49184;DHT22;35021;49.214;12.270;2023-06-14T01:23:56;22.20;42.50
49184;DHT22;35021;49.214;12.270;2023-06-14T01:26:23;22.20;42.50
49184;DHT22;35021;49.214;12.270;2023-06-14T01:28:50;22.20;43.20
49184;DHT22;35021;49.214;12.270;2023-06-14T01:31:20;22.20;42.50
49184;DHT22;35021;49.214;12.270;2023-06-14T01:33:51;22.20;42.50
49184;DHT22;35021;49.214;12.270;2023-06-14T01:36:19;22.20;42.60
49184;DHT22;35021;49.214;12.270;2023-06-14T01:38:50;22.20;42.50
49184;DHT22;35021;49.214;12.270;2023-06-14T01:41:18;22.20;42.50
49184;DHT22;35021;49.214;12.270;2023-06-14T01:43:47;22.20;42.50
49184;DHT22;35021;49.214;12.270;2023-06-14T01:46:16;22.30;42.50
49184;DHT22;35021;49.214;12.270;2023-06-14T01:48:44;22.30;42.50
49184;DHT22;35021;49.214;12.270;2023-06-14T01:51:11;22.30;42.40
49184;DHT22;35021;49.214;12.270;2023-06-14T01:53:38;22.30;42.40
49184;DHT22;35021;49.214;12.270;2023-06-14T01:56:05;22.30;42.40
49184;DHT22;35021;49.214;12.270;2023-06-14T01:58:33;22.30;42.40
49184;DHT22;35021;49.214;12.270;2023-06-14T02:00:59;22.30;42.30
49184;DHT22;35021;49.214;12.270;2023-06-14T02:03:28;22.30;42.40
49184;DHT22;35021;49.214;12.270;2023-06-14T02:05:54;22.30;42.30
49184;DHT22;35021;49.214;12.270;2023-06-14T02:08:22;22.30;42.30
49184;DHT22;35021;49.214;12.270;2023-06-14T02:10:50;22.30;42.30
49184;DHT22;35021;49.214;12.270;2023-06-14T02:13:17;22.30;42.30
49184;DHT22;35021;49.214;12.270;2023-06-14T02:15:44;22.30;42.30
49184;DHT22;35021;49.214;12.270;2023-06-14T02:18:12;22.20;42.20
49184;DHT22;35021;49.214;12.270;2023-06-14T02:20:39;22.20;42.30
49184;DHT22;35021;49.214;12.270;2023-06-14T02:23:06;22.20;42.20
49184;DHT22;35021;49.214;12.270;2023-06-14T02:25:34;22.20;42.20
49184;DHT22;35021;49.214;12.270;2023-06-14T02:28:02;22.20;42.20
49184;DHT22;35021;49.214;12.270;2023-06-14T02:30:29;22.20;42.20
49184;DHT22;35021;49.214;12.270;2023-06-14T02:32:56;22.20;42.30
49184;DHT22;35021;49.214;12.270;2023-06-14T02:35:23;22.10;42.30
49184;DHT22;35021;49.214;12.270;2023-06-14T02:37:53;22.10;42.30
49184;DHT22;35021;49.214;12.270;2023-06-14T02:40:20;22.10;42.40
49184;DHT22;35021;49.214;12.270;2023-06-14T02:42:47;22.00;42.30
49184;DHT22;35021;49.214;12.270;2023-06-14T02:45:14;22.00;42.40
49184;DHT22;35021;49.214;12.270;2023-06-14T02:47:41;22.00;42.40
49184;DHT22;35021;49.214;12.270;2023-06-14T02:50:08;22.00;42.50
49184;DHT22;35021;49.214;12.270;2023-06-14T02:52:35;22.00;42.50
49184;DHT22;35021;49.214;12.270;2023-06-14T02:55:02;21.90;42.50
49184;DHT22;35021;49.214;12.270;2023-06-14T02:57:29;21.90;42.50
49184;DHT22;35021;49.214;12.270;2023-06-14T02:59:56;22.00;42.50
49184;DHT22;35021;49.214;12.270;2023-06-14T03:02:23;21.90;42.40
49184;DHT22;35021;49.214;12.270;2023-06-14T03:04:50;21.90;42.40
49184;DHT22;35021;49.214;12.270;2023-06-14T03:07:17;21.90;42.40
49184;DHT22;35021;49.214;12.270;2023-06-14T03:09:49;21.90;42.40
49184;DHT22;35021;49.214;12.270;2023-06-14T03:12:16;21.90;42.40
49184;DHT22;35021;49.214;12.270;2023-06-14T03:14:43;21.90;42.30
49184;DHT22;35021;49.214;12.270;2023-06-14T03:17:13;21.80;42.30
49184;DHT22;35021;49.214;12.270;2023-06-14T03:19:40;21.90;42.40
49184;DHT22;35021;49.214;12.270;2023-06-14T03:22:08;21.80;42.50
49184;DHT22;35021;49.214;12.270;2023-06-14T03:24:35;21.80;42.50
49184;DHT22;35021;49.214;12.270;2023-06-14T03:27:04;21.80;42.50
49184;DHT22;35021;49.214;12.270;2023-06-14T03:29:31;21.80;42.50
49184;DHT22;35021;49.214;12.270;2023-06-14T03:32:02;21.80;42.40
49184;DHT22;35021;49.214;12.270;2023-06-14T03:34:29;21.80;42.40
49184;DHT22;35021;49.214;12.270;2023-06-14T03:36:57;21.90;42.40
49184;DHT22;35021;49.214;12.270;2023-06-14T03:39:24;22.00;42.40
49184;DHT22;35021;49.214;12.270;2023-06-14T03:41:51;22.00;42.30
49184;DHT22;35021;49.214;12.270;2023-06-14T03:44:18;22.10;42.20
49184;DHT22;35021;49.214;12.270;2023-06-14T03:46:45;22.20;42.00
49184;DHT22;35021;49.214;12.270;2023-06-14T03:49:13;22.20;41.90
49184;DHT22;35021;49.214;12.270;2023-06-14T03:51:40;22.30;41.90
49184;DHT22;35021;49.214;12.270;2023-06-14T03:54:07;22.30;41.80
49184;DHT22;35021;49.214;12.270;2023-06-14T03:56:54;22.40;41.70
49184;DHT22;35021;49.214;12.270;2023-06-14T03:59:21;22.50;41.60
49184;DHT22;35021;49.214;12.270;2023-06-14T04:01:48;22.50;41.60
49184;DHT22;35021;49.214;12.270;2023-06-14T04:04:15;22.50;41.60
49184;DHT22;35021;49.214;12.270;2023-06-14T04:06:43;22.50;41.60
49184;DHT22;35021;49.214;12.270;2023-06-14T04:09:10;22.50;41.60
49184;DHT22;35021;49.214;12.270;2023-06-14T04:11:36;22.50;41.70
49184;DHT22;35021;49.214;12.270;2023-06-14T04:14:03;22.50;41.80
49184;DHT22;35021;49.214;12.270;2023-06-14T04:16:30;22.40;41.80
49184;DHT22;35021;49.214;12.270;2023-06-14T04:18:57;22.40;42.00
49184;DHT22;35021;49.214;12.270;2023-06-14T04:21:25;22.30;42.00
49184;DHT22;35021;49.214;12.270;2023-06-14T04:23:54;22.30;42.80
49184;DHT22;35021;49.214;12.270;2023-06-14T04:26:22;22.30;42.20
49184;DHT22;35021;49.214;12.270;2023-06-14T04:28:53;22.30;42.10
49184;DHT22;35021;49.214;12.270;2023-06-14T04:31:23;22.30;42.10
49184;DHT22;35021;49.214;12.270;2023-06-14T04:33:53;22.40;42.10
49184;DHT22;35021;49.214;12.270;2023-06-14T04:36:20;22.40;42.20
49184;DHT22;35021;49.214;12.270;2023-06-14T04:38:47;22.50;42.00
49184;DHT22;35021;49.214;12.270;2023-06-14T04:41:15;22.50;42.00
49184;DHT22;35021;49.214;12.270;2023-06-14T04:43:42;22.60;41.90
49184;DHT22;35021;49.214;12.270;2023-06-14T04:46:09;22.60;41.90
49184;DHT22;35021;49.214;12.270;2023-06-14T04:48:41;22.60;41.90
49184;DHT22;35021;49.214;12.270;2023-06-14T04:51:09;22.60;41.90
49184;DHT22;35021;49.214;12.270;2023-06-14T04:53:36;22.70;41.90
49184;DHT22;35021;49.214;12.270;2023-06-14T04:56:04;22.60;41.90
49184;DHT22;35021;49.214;12.270;2023-06-14T04:58:31;22.60;41.90
49184;DHT22;35021;49.214;12.270;2023-06-14T05:00:59;22.60;42.00
49184;DHT22;35021;49.214;12.270;2023-06-14T05:03:26;22.60;42.20
49184;DHT22;35021;49.214;12.270;2023-06-14T05:05:54;22.50;42.40
49184;DHT22;35021;49.214;12.270;2023-06-14T05:08:22;22.50;42.70
49184;DHT22;35021;49.214;12.270;2023-06-14T05:10:52;22.50;42.90
49184;DHT22;35021;49.214;12.270;2023-06-14T05:13:19;22.40;42.90
49184;DHT22;35021;49.214;12.270;2023-06-14T05:15:47;22.40;42.90
49184;DHT22;35021;49.214;12.270;2023-06-14T05:18:14;22.50;42.90
49184;DHT22;35021;49.214;12.270;2023-06-14T05:20:42;22.50;43.10
49184;DHT22;35021;49.214;12.270;2023-06-14T05:23:09;22.60;43.10
49184;DHT22;35021;49.214;12.270;2023-06-14T05:25:43;22.60;43.10
49184;DHT22;35021;49.214;12.270;2023-06-14T05:28:10;22.70;43.20
49184;DHT22;35021;49.214;12.270;2023-06-14T05:30:38;22.70;43.30
49184;DHT22;35021;49.214;12.270;2023-06-14T05:33:06;22.70;43.40
49184;DHT22;35021;49.214;12.270;2023-06-14T05:35:33;22.70;43.40
49184;DHT22;35021;49.214;12.270;2023-06-14T05:38:01;22.70;43.60
49184;DHT22;35021;49.214;12.270;2023-06-14T05:40:28;22.70;43.40
49184;DHT22;35021;49.214;12.270;2023-06-14T05:42:55;22.60;43.30
49184;DHT22;35021;49.214;12.270;2023-06-14T05:45:22;22.60;43.40
49184;DHT22;35021;49.214;12.270;2023-06-14T05:47:49;22.60;43.50
49184;DHT22;35021;49.214;12.270;2023-06-14T05:50:17;22.50;43.50
49184;DHT22;35021;49.214;12.270;2023-06-14T05:52:44;22.60;43.70
49184;DHT22;35021;49.214;12.270;2023-06-14T05:55:11;22.60;43.80
49184;DHT22;35021;49.214;12.270;2023-06-14T05:57:39;22.60;43.70
49184;DHT22;35021;49.214;12.270;2023-06-14T06:00:08;22.60;43.70
49184;DHT22;35021;49.214;12.270;2023-06-14T06:02:44;22.60;43.60
49184;DHT22;35021;49.214;12.270;2023-06-14T06:05:12;22.70;43.60
49184;DHT22;35021;49.214;12.270;2023-06-14T06:07:39;22.70;43.60
49184;DHT22;35021;49.214;12.270;2023-06-14T06:10:07;22.70;43.50
49184;DHT22;35021;49.214;12.270;2023-06-14T06:12:34;22.80;43.40
49184;DHT22;35021;49.214;12.270;2023-06-14T06:15:01;22.80;43.40
49184;DHT22;35021;49.214;12.270;2023-06-14T06:17:29;22.80;43.30
49184;DHT22;35021;49.214;12.270;2023-06-14T06:20:12;22.90;43.20
49184;DHT22;35021;49.214;12.270;2023-06-14T06:22:39;22.90;43.20
49184;DHT22;35021;49.214;12.270;2023-06-14T06:25:06;22.90;43.20
49184;DHT22;35021;49.214;12.270;2023-06-14T06:27:34;22.90;43.20
49184;DHT22;35021;49.214;12.270;2023-06-14T06:30:04;22.90;43.30
49184;DHT22;35021;49.214;12.270;2023-06-14T06:32:32;22.90;43.40
49184;DHT22;35021;49.214;12.270;2023-06-14T06:34:59;22.80;43.40
49184;DHT22;35021;49.214;12.270;2023-06-14T06:37:27;22.80;43.50
49184;DHT22;35021;49.214;12.270;2023-06-14T06:39:53;22.80;43.50
49184;DHT22;35021;49.214;12.270;2023-06-14T06:42:20;22.70;43.50
49184;DHT22;35021;49.214;12.270;2023-06-14T06:44:47;22.70;43.50
49184;DHT22;35021;49.214;12.270;2023-06-14T06:47:14;22.80;43.40
49184;DHT22;35021;49.214;12.270;2023-06-14T06:49:41;22.80;43.40
49184;DHT22;35021;49.214;12.270;2023-06-14T06:52:08;22.80;43.30
49184;DHT22;35021;49.214;12.270;2023-06-14T06:54:35;22.90;43.30
49184;DHT22;35021;49.214;12.270;2023-06-14T06:57:02;22.90;43.20
49184;DHT22;35021;49.214;12.270;2023-06-14T06:59:29;22.90;43.20
49184;DHT22;35021;49.214;12.270;2023-06-14T07:01:57;22.90;43.20
49184;DHT22;35021;49.214;12.270;2023-06-14T07:04:24;22.90;43.20
49184;DHT22;35021;49.214;12.270;2023-06-14T07:06:51;22.90;43.30
49184;DHT22;35021;49.214;12.270;2023-06-14T07:09:17;22.80;43.30
49184;DHT22;35021;49.214;12.270;2023-06-14T07:11:47;22.80;43.40
49184;DHT22;35021;49.214;12.270;2023-06-14T07:14:14;22.80;43.50
49184;DHT22;35021;49.214;12.270;2023-06-14T07:16:41;22.70;43.60
49184;DHT22;35021;49.214;12.270;2023-06-14T07:19:10;22.70;43.70
49184;DHT22;35021;49.214;12.270;2023-06-14T07:21:37;22.70;43.80
49184;DHT22;35021;49.214;12.270;2023-06-14T07:24:07;22.60;43.80
49184;DHT22;35021;49.214;12.270;2023-06-14T07:26:35;22.60;43.90
49184;DHT22;35021;49.214;12.270;2023-06-14T07:29:02;22.60;43.90
49184;DHT22;35021;49.214;12.270;2023-06-14T07:31:29;22.60;43.90
49184;DHT22;35021;49.214;12.270;2023-06-14T07:33:56;22.60;43.90
49184;DHT22;35021;49.214;12.270;2023-06-14T07:36:23;22.60;43.90
49184;DHT22;35021;49.214;12.270;2023-06-14T07:38:50;22.60;43.90
49184;DHT22;35021;49.214;12.270;2023-06-14T07:41:17;22.60;44.00
49184;DHT22;35021;49.214;12.270;2023-06-14T07:43:44;22.50;43.90
49184;DHT22;35021;49.214;12.270;2023-06-14T07:46:11;22.50;44.00
49184;DHT22;35021;49.214;12.270;2023-06-14T07:48:38;22.50;44.10
49184;DHT22;35021;49.214;12.270;2023-06-14T07:51:05;22.50;44.00
49184;DHT22;35021;49.214;12.270;2023-06-14T07:53:32;22.50;44.00
49184;DHT22;35021;49.214;12.270;2023-06-14T07:55:59;22.50;44.00
49184;DHT22;35021;49.214;12.270;2023-06-14T07:58:26;22.50;44.00
49184;DHT22;35021;49.214;12.270;2023-06-14T08:00:53;22.50;43.90
49184;DHT22;35021;49.214;12.270;2023-06-14T08:03:20;22.50;43.90
49184;DHT22;35021;49.214;12.270;2023-06-14T08:05:49;22.50;43.90
49184;DHT22;35021;49.214;12.270;2023-06-14T08:08:16;22.50;43.80
49184;DHT22;35021;49.214;12.270;2023-06-14T08:10:44;22.50;43.90
49184;DHT22;35021;49.214;12.270;2023-06-14T08:13:11;22.50;43.80
49184;DHT22;35021;49.214;12.270;2023-06-14T08:15:38;22.50;43.80
49184;DHT22;35021;49.214;12.270;2023-06-14T08:18:05;22.50;43.80
49184;DHT22;35021;49.214;12.270;2023-06-14T08:20:32;22.50;43.80
49184;DHT22;35021;49.214;12.270;2023-06-14T08:22:59;22.50;43.80
49184;DHT22;35021;49.214;12.270;2023-06-14T08:25:26;22.50;43.80
49184;DHT22;35021;49.214;12.270;2023-06-14T08:27:53;22.60;43.80
49184;DHT22;35021;49.214;12.270;2023-06-14T08:30:20;22.60;43.70
49184;DHT22;35021;49.214;12.270;2023-06-14T08:32:47;22.60;43.60
49184;DHT22;35021;49.214;12.270;2023-06-14T08:35:28;22.60;43.60
49184;DHT22;35021;49.214;12.270;2023-06-14T08:37:55;22.60;43.60
49184;DHT22;35021;49.214;12.270;2023-06-14T08:40:23;22.70;43.60
49184;DHT22;35021;49.214;12.270;2023-06-14T08:42:53;22.70;43.60
49184;DHT22;35021;49.214;12.270;2023-06-14T08:45:21;22.70;43.50
49184;DHT22;35021;49.214;12.270;2023-06-14T08:47:53;22.70;43.40
49184;DHT22;35021;49.214;12.270;2023-06-14T08:50:26;22.80;43.30
49184;DHT22;35021;49.214;12.270;2023-06-14T08:53:00;22.90;43.30
49184;DHT22;35021;49.214;12.270;2023-06-14T08:55:31;22.90;43.40
49184;DHT22;35021;49.214;12.270;2023-06-14T08:58:04;23.10;43.30
49184;DHT22;35021;49.214;12.270;2023-06-14T09:00:32;23.20;43.20
49184;DHT22;35021;49.214;12.270;2023-06-14T09:03:00;23.20;43.00
49184;DHT22;35021;49.214;12.270;2023-06-14T09:05:28;23.30;43.10
49184;DHT22;35021;49.214;12.270;2023-06-14T09:07:55;23.40;43.10
49184;DHT22;35021;49.214;12.270;2023-06-14T09:10:32;23.40;43.00
49184;DHT22;35021;49.214;12.270;2023-06-14T09:13:04;23.40;42.90
49184;DHT22;35021;49.214;12.270;2023-06-14T09:15:32;23.40;42.90
49184;DHT22;35021;49.214;12.270;2023-06-14T09:18:01;23.40;42.90
49184;DHT22;35021;49.214;12.270;2023-06-14T09:20:30;23.30;43.00
49184;DHT22;35021;49.214;12.270;2023-06-14T09:22:58;23.30;43.10
49184;DHT22;35021;49.214;12.270;2023-06-14T09:25:24;23.20;43.80
49184;DHT22;35021;49.214;12.270;2023-06-14T09:28:09;23.20;43.30
49184;DHT22;35021;49.214;12.270;2023-06-14T09:30:38;23.10;43.40
49184;DHT22;35021;49.214;12.270;2023-06-14T09:33:05;23.10;43.50
49184;DHT22;35021;49.214;12.270;2023-06-14T09:35:32;23.10;43.60
49184;DHT22;35021;49.214;12.270;2023-06-14T09:37:59;23.00;43.70
49184;DHT22;35021;49.214;12.270;2023-06-14T09:40:27;23.00;43.80
49184;DHT22;35021;49.214;12.270;2023-06-14T09:42:54;23.00;43.90
49184;DHT22;35021;49.214;12.270;2023-06-14T09:45:25;23.00;44.00
49184;DHT22;35021;49.214;12.270;2023-06-14T09:47:56;23.00;44.10
49184;DHT22;35021;49.214;12.270;2023-06-14T09:50:34;23.00;44.20
49184;DHT22;35021;49.214;12.270;2023-06-14T09:53:09;22.90;44.30
49184;DHT22;35021;49.214;12.270;2023-06-14T09:55:37;22.90;44.40
49184;DHT22;35021;49.214;12.270;2023-06-14T09:58:06;22.90;44.50
49184;DHT22;35021;49.214;12.270;2023-06-14T10:00:35;22.90;44.60
49184;DHT22;35021;49.214;12.270;2023-06-14T10:03:28;22.90;44.60
49184;DHT22;35021;49.214;12.270;2023-06-14T10:06:08;22.90;44.60
49184;DHT22;35021;49.214;12.270;2023-06-14T10:08:36;22.90;44.60
49184;DHT22;35021;49.214;12.270;2023-06-14T10:11:04;22.90;44.70
49184;DHT22;35021;49.214;12.270;2023-06-14T10:13:32;22.90;44.60
49184;DHT22;35021;49.214;12.270;2023-06-14T10:16:23;22.90;44.60
49184;DHT22;35021;49.214;12.270;2023-06-14T10:19:04;22.90;44.60
49184;DHT22;35021;49.214;12.270;2023-06-14T10:24:38;22.80;44.50
49184;DHT22;35021;49.214;12.270;2023-06-14T10:27:07;22.80;44.50
49184;DHT22;35021;49.214;12.270;2023-06-14T10:30:04;22.80;44.40
49184;DHT22;35021;49.214;12.270;2023-06-14T10:32:32;22.80;44.40
49184;DHT22;35021;49.214;12.270;2023-06-14T10:35:01;22.70;44.40
49184;DHT22;35021;49.214;12.270;2023-06-14T10:37:28;22.70;44.40
49184;DHT22;35021;49.214;12.270;2023-06-14T10:39:55;22.70;44.30
49184;DHT22;35021;49.214;12.270;2023-06-14T10:42:28;22.70;44.20
49184;DHT22;35021;49.214;12.270;2023-06-14T10:44:57;22.70;44.20
49184;DHT22;35021;49.214;12.270;2023-06-14T10:47:28;22.70;44.10
49184;DHT22;35021;49.214;12.270;2023-06-14T10:50:04;22.70;44.00
49184;DHT22;35021;49.214;12.270;2023-06-14T10:52:38;22.70;43.90
49184;DHT22;35021;49.214;12.270;2023-06-14T10:55:25;22.70;43.80
49184;DHT22;35021;49.214;12.270;2023-06-14T10:57:54;22.70;43.70
49184;DHT22;35021;49.214;12.270;2023-06-14T11:00:27;22.80;43.70
49184;DHT22;35021;49.214;12.270;2023-06-14T11:05:54;22.80;43.40
49184;DHT22;35021;49.214;12.270;2023-06-14T11:08:56;22.80;43.20
49184;DHT22;35021;49.214;12.270;2023-06-14T11:11:33;22.80;43.10
49184;DHT22;35021;49.214;12.270;2023-06-14T11:14:02;22.80;43.00
49184;DHT22;35021;49.214;12.270;2023-06-14T11:16:29;22.90;43.00
49184;DHT22;35021;49.214;12.270;2023-06-14T11:19:01;22.90;43.00
49184;DHT22;35021;49.214;12.270;2023-06-14T11:21:32;22.90;42.90
49184;DHT22;35021;49.214;12.270;2023-06-14T11:24:00;22.90;42.90
49184;DHT22;35021;49.214;12.270;2023-06-14T11:26:29;22.90;42.90
49184;DHT22;35021;49.214;12.270;2023-06-14T11:28:58;22.90;42.90
49184;DHT22;35021;49.214;12.270;2023-06-14T11:31:26;23.00;42.90
49184;DHT22;35021;49.214;12.270;2023-06-14T11:33:54;22.90;42.70
49184;DHT22;35021;49.214;12.270;2023-06-14T11:36:29;23.00;42.60
49184;DHT22;35021;49.214;12.270;2023-06-14T11:39:03;23.00;42.40
49184;DHT22;35021;49.214;12.270;2023-06-14T11:41:40;23.00;42.20
49184;DHT22;35021;49.214;12.270;2023-06-14T11:44:07;23.00;42.10
49184;DHT22;35021;49.214;12.270;2023-06-14T11:46:37;23.00;41.90
49184;DHT22;35021;49.214;12.270;2023-06-14T11:49:04;23.00;41.80
49184;DHT22;35021;49.214;12.270;2023-06-14T11:51:34;23.00;41.60
49184;DHT22;35021;49.214;12.270;2023-06-14T11:54:02;23.00;41.20
49184;DHT22;35021;49.214;12.270;2023-06-14T11:56:31;23.00;40.90
49184;DHT22;35021;49.214;12.270;2023-06-14T11:58:59;23.00;40.70
49184;DHT22;35021;49.214;12.270;2023-06-14T12:01:27;23.00;40.60
49184;DHT22;35021;49.214;12.270;2023-06-14T12:03:54;22.90;40.50
49184;DHT22;35021;49.214;12.270;2023-06-14T12:06:29;22.90;40.50
49184;DHT22;35021;49.214;12.270;2023-06-14T12:09:00;22.90;40.40
49184;DHT22;35021;49.214;12.270;2023-06-14T12:11:34;22.90;40.50
49184;DHT22;35021;49.214;12.270;2023-06-14T12:14:05;22.90;40.30
49184;DHT22;35021;49.214;12.270;2023-06-14T12:16:38;22.80;40.20
49184;DHT22;35021;49.214;12.270;2023-06-14T12:19:15;22.80;40.20
49184;DHT22;35021;49.214;12.270;2023-06-14T12:21:45;22.90;40.20
49184;DHT22;35021;49.214;12.270;2023-06-14T12:24:15;22.90;40.20
49184;DHT22;35021;49.214;12.270;2023-06-14T12:26:42;22.90;40.30
49184;DHT22;35021;49.214;12.270;2023-06-14T12:29:09;22.90;40.40
49184;DHT22;35021;49.214;12.270;2023-06-14T12:31:37;22.90;40.30
49184;DHT22;35021;49.214;12.270;2023-06-14T12:34:04;22.90;40.30
49184;DHT22;35021;49.214;12.270;2023-06-14T12:36:32;22.90;40.20
49184;DHT22;35021;49.214;12.270;2023-06-14T12:39:03;22.90;40.10
49184;DHT22;35021;49.214;12.270;2023-06-14T12:41:30;22.90;40.10
49184;DHT22;35021;49.214;12.270;2023-06-14T12:43:57;22.90;40.00
49184;DHT22;35021;49.214;12.270;2023-06-14T12:46:26;22.80;39.90
49184;DHT22;35021;49.214;12.270;2023-06-14T12:48:53;22.90;39.90
49184;DHT22;35021;49.214;12.270;2023-06-14T12:51:20;22.90;39.70
49184;DHT22;35021;49.214;12.270;2023-06-14T12:53:46;22.90;39.60
49184;DHT22;35021;49.214;12.270;2023-06-14T12:56:13;22.90;39.60
49184;DHT22;35021;49.214;12.270;2023-06-14T12:58:41;22.90;39.60
49184;DHT22;35021;49.214;12.270;2023-06-14T13:01:08;22.90;39.60
49184;DHT22;35021;49.214;12.270;2023-06-14T13:03:38;22.90;39.70
49184;DHT22;35021;49.214;12.270;2023-06-14T13:06:05;22.90;39.70
49184;DHT22;35021;49.214;12.270;2023-06-14T13:08:32;22.80;39.60
49184;DHT22;35021;49.214;12.270;2023-06-14T13:10:59;22.80;39.60
49184;DHT22;35021;49.214;12.270;2023-06-14T13:13:25;22.80;39.70
49184;DHT22;35021;49.214;12.270;2023-06-14T13:15:52;22.80;39.70
49184;DHT22;35021;49.214;12.270;2023-06-14T13:18:19;22.90;39.80
49184;DHT22;35021;49.214;12.270;2023-06-14T13:20:47;22.90;39.80
49184;DHT22;35021;49.214;12.270;2023-06-14T13:23:15;22.90;39.80
49184;DHT22;35021;49.214;12.270;2023-06-14T13:25:42;22.90;39.80
49184;DHT22;35021;49.214;12.270;2023-06-14T13:28:09;22.90;39.80
49184;DHT22;35021;49.214;12.270;2023-06-14T13:30:37;22.90;39.90
49184;DHT22;35021;49.214;12.270;2023-06-14T13:33:04;22.90;39.90
49184;DHT22;35021;49.214;12.270;2023-06-14T13:35:31;22.90;40.00
49184;DHT22;35021;49.214;12.270;2023-06-14T13:37:57;23.00;40.00
49184;DHT22;35021;49.214;12.270;2023-06-14T13:40:24;23.00;40.00
49184;DHT22;35021;49.214;12.270;2023-06-14T13:42:51;23.00;40.00
49184;DHT22;35021;49.214;12.270;2023-06-14T13:45:18;23.00;40.00
49184;DHT22;35021;49.214;12.270;2023-06-14T13:47:47;23.00;39.90
49184;DHT22;35021;49.214;12.270;2023-06-14T13:50:15;23.10;40.00
49184;DHT22;35021;49.214;12.270;2023-06-14T13:52:49;23.10;39.90
49184;DHT22;35021;49.214;12.270;2023-06-14T13:55:16;23.10;39.80
49184;DHT22;35021;49.214;12.270;2023-06-14T13:57:42;23.10;39.70
49184;DHT22;35021;49.214;12.270;2023-06-14T14:00:10;23.10;39.80
49184;DHT22;35021;49.214;12.270;2023-06-14T14:02:37;23.10;39.80
49184;DHT22;35021;49.214;12.270;2023-06-14T14:05:05;23.10;39.80
49184;DHT22;35021;49.214;12.270;2023-06-14T14:07:32;23.10;39.60
49184;DHT22;35021;49.214;12.270;2023-06-14T14:09:58;23.10;39.60
49184;DHT22;35021;49.214;12.270;2023-06-14T14:12:25;23.10;39.60
49184;DHT22;35021;49.214;12.270;2023-06-14T14:14:55;23.10;39.70
49184;DHT22;35021;49.214;12.270;2023-06-14T14:17:22;23.10;39.70
49184;DHT22;35021;49.214;12.270;2023-06-14T14:19:49;23.10;39.80
49184;DHT22;35021;49.214;12.270;2023-06-14T14:22:16;23.10;39.80
49184;DHT22;35021;49.214;12.270;2023-06-14T14:24:43;23.20;39.90
49184;DHT22;35021;49.214;12.270;2023-06-14T14:27:10;23.10;39.90
49184;DHT22;35021;49.214;12.270;2023-06-14T14:29:38;23.20;40.00
49184;DHT22;35021;49.214;12.270;2023-06-14T14:32:05;23.20;40.00
49184;DHT22;35021;49.214;12.270;2023-06-14T14:34:33;23.20;39.80
49184;DHT22;35021;49.214;12.270;2023-06-14T14:37:02;23.20;39.80
49184;DHT22;35021;49.214;12.270;2023-06-14T14:39:29;23.20;39.80
49184;DHT22;35021;49.214;12.270;2023-06-14T14:41:57;23.20;39.80
49184;DHT22;35021;49.214;12.270;2023-06-14T14:44:25;23.20;39.90
49184;DHT22;35021;49.214;12.270;2023-06-14T14:46:51;23.10;39.90
49184;DHT22;35021;49.214;12.270;2023-06-14T14:49:18;23.10;40.00
49184;DHT22;35021;49.214;12.270;2023-06-14T14:51:45;23.10;40.00
49184;DHT22;35021;49.214;12.270;2023-06-14T14:54:12;23.10;39.90
49184;DHT22;35021;49.214;12.270;2023-06-14T14:56:39;23.10;39.80
49184;DHT22;35021;49.214;12.270;2023-06-14T14:59:06;23.00;39.80
49184;DHT22;35021;49.214;12.270;2023-06-14T15:01:33;23.00;39.80
49184;DHT22;35021;49.214;12.270;2023-06-14T15:04:00;23.00;39.90
49184;DHT22;35021;49.214;12.270;2023-06-14T15:06:27;23.00;39.90
49184;DHT22;35021;49.214;12.270;2023-06-14T15:08:55;23.00;39.80
49184;DHT22;35021;49.214;12.270;2023-06-14T15:11:22;23.00;39.80
49184;DHT22;35021;49.214;12.270;2023-06-14T15:13:49;23.00;39.80
49184;DHT22;35021;49.214;12.270;2023-06-14T15:16:16;23.00;39.80
49184;DHT22;35021;49.214;12.270;2023-06-14T15:18:43;23.00;39.70
49184;DHT22;35021;49.214;12.270;2023-06-14T15:21:11;23.00;39.60
49184;DHT22;35021;49.214;12.270;2023-06-14T15:23:38;23.00;39.60
49184;DHT22;35021;49.214;12.270;2023-06-14T15:26:05;23.00;39.50
49184;DHT22;35021;49.214;12.270;2023-06-14T15:28:32;23.00;39.30
49184;DHT22;35021;49.214;12.270;2023-06-14T15:30:59;23.10;39.40
49184;DHT22;35021;49.214;12.270;2023-06-14T15:33:27;23.10;39.40